createdAt,value
2023-01-22T00:02:01.473Z,2.03
2023-01-22T00:04:31.246Z,1.89
2023-01-22T00:07:00.889Z,2.01
2023-01-22T00:09:30.558Z,2.02
2023-01-22T00:12:00.600Z,1.98
2023-01-22T00:14:32.915Z,2.02
2023-01-22T00:17:02.618Z,1.98
2023-01-22T00:19:32.274Z,2.01
2023-01-22T00:22:01.901Z,1.93
2023-01-22T00:24:31.567Z,1.87
2023-01-22T00:27:01.696Z,1.88
2023-01-22T00:29:33.927Z,1.92
2023-01-22T00:32:03.672Z,1.90
2023-01-22T00:34:33.618Z,1.84
2023-01-22T00:37:03.258Z,1.89
2023-01-22T00:39:32.896Z,1.75
2023-01-22T00:42:02.726Z,1.87
2023-01-22T00:44:35.023Z,1.80
2023-01-22T00:47:04.692Z,1.93
2023-01-22T00:49:35.038Z,1.97
2023-01-22T00:52:04.657Z,1.98
2023-01-22T00:54:34.300Z,1.77
2023-01-22T00:57:03.967Z,1.97
2023-01-22T00:59:36.234Z,1.97
2023-01-22T01:02:06.643Z,1.81
2023-01-22T01:04:36.333Z,1.99
2023-01-22T01:07:05.969Z,1.99
2023-01-22T01:09:35.671Z,2.00
2023-01-22T01:12:05.359Z,1.91
2023-01-22T01:14:37.798Z,1.87
2023-01-22T01:17:07.433Z,1.99
2023-01-22T01:19:37.099Z,1.99
2023-01-22T01:22:08.226Z,2.00
2023-01-22T01:24:38.784Z,2.01
2023-01-22T01:27:08.446Z,1.94
2023-01-22T01:29:40.677Z,2.08
2023-01-22T01:32:10.311Z,2.10
2023-01-22T01:34:39.965Z,2.13
2023-01-22T01:37:09.660Z,2.03
2023-01-22T01:39:39.265Z,2.11
2023-01-22T01:42:09.258Z,2.10
2023-01-22T01:44:43.320Z,2.19
2023-01-22T01:47:32.081Z,1.98
2023-01-22T01:50:01.762Z,2.10
2023-01-22T01:52:31.416Z,2.02
2023-01-22T01:55:01.345Z,2.10
2023-01-22T01:57:34.650Z,1.99
2023-01-22T02:00:10.926Z,1.99
2023-01-22T02:02:43.321Z,1.94
2023-01-22T02:05:13.775Z,1.87
2023-01-22T02:07:44.463Z,1.68
2023-01-22T02:10:14.195Z,1.79
2023-01-22T02:12:43.894Z,1.70
2023-01-22T02:15:16.594Z,1.77
2023-01-22T02:17:46.284Z,1.74
2023-01-22T02:20:16.675Z,1.65
2023-01-22T02:22:49.930Z,1.50
2023-01-22T02:25:21.805Z,1.65
2023-01-22T02:27:51.471Z,1.67
2023-01-22T02:30:23.871Z,1.65
2023-01-22T02:32:53.625Z,1.58
2023-01-22T02:35:23.362Z,1.65
2023-01-22T02:37:55.639Z,1.54
2023-01-22T02:40:25.301Z,1.49
2023-01-22T02:42:56.658Z,1.59
2023-01-22T02:45:26.637Z,1.59
2023-01-22T02:47:56.371Z,1.57
2023-01-22T02:50:26.082Z,1.54
2023-01-22T02:52:58.657Z,1.57
2023-01-22T02:55:28.328Z,1.55
2023-01-22T02:57:59.604Z,1.46
2023-01-22T03:00:29.268Z,1.52
2023-01-22T03:02:59.146Z,1.44
2023-01-22T03:05:29.591Z,1.53
2023-01-22T03:08:01.807Z,1.63
2023-01-22T03:10:32.011Z,1.30
2023-01-22T03:13:15.437Z,1.62
2023-01-22T03:15:57.909Z,1.56
2023-01-22T03:18:40.101Z,1.52
2023-01-22T03:21:18.902Z,1.47
2023-01-22T03:23:53.740Z,1.50
2023-01-22T03:26:25.978Z,1.53
2023-01-22T03:28:55.568Z,1.47
2023-01-22T03:31:25.396Z,1.41
2023-01-22T03:33:55.260Z,1.24
2023-01-22T03:36:24.956Z,1.35
2023-01-22T03:39:00.572Z,1.42
2023-01-22T03:41:31.179Z,1.38
2023-01-22T03:44:03.584Z,1.31
2023-01-22T03:46:36.834Z,1.36
2023-01-22T03:49:06.956Z,1.35
2023-01-22T03:51:36.831Z,1.32
2023-01-22T03:54:09.984Z,1.24
2023-01-22T03:56:41.886Z,1.23
2023-01-22T03:59:20.474Z,1.42
2023-01-22T04:01:50.971Z,1.27
2023-01-22T04:04:21.313Z,1.16
2023-01-22T04:06:51.100Z,1.27
2023-01-22T04:09:23.443Z,1.21
2023-01-22T04:11:53.325Z,1.16
2023-01-22T04:14:22.998Z,1.27
2023-01-22T04:16:59.933Z,1.20
2023-01-22T04:19:53.100Z,1.22
2023-01-22T04:22:42.536Z,1.24
2023-01-22T04:25:16.998Z,1.13
2023-01-22T04:27:47.844Z,1.09
2023-01-22T04:30:20.722Z,1.14
2023-01-22T04:32:53.959Z,1.00
2023-01-22T04:35:33.241Z,1.15
2023-01-22T04:38:05.579Z,1.10
2023-01-22T04:40:37.853Z,0.91
2023-01-22T04:43:09.649Z,0.95
2023-01-22T04:45:40.046Z,0.88
2023-01-22T04:48:12.783Z,0.90
2023-01-22T04:50:46.323Z,0.94
2023-01-22T04:53:16.409Z,1.15
2023-01-22T04:55:48.825Z,1.12
2023-01-22T04:58:18.551Z,0.93
2023-01-22T05:00:48.230Z,0.94
2023-01-22T05:03:17.970Z,1.06
2023-01-22T05:05:47.627Z,1.07
2023-01-22T05:08:17.468Z,1.11
2023-01-22T05:10:50.482Z,1.10
2023-01-22T05:13:28.287Z,1.09
2023-01-22T05:15:58.331Z,1.05
2023-01-22T05:18:28.967Z,1.04
2023-01-22T05:20:58.611Z,1.20
2023-01-22T05:23:31.844Z,1.21
2023-01-22T05:26:04.097Z,1.14
2023-01-22T05:28:59.661Z,1.19
2023-01-22T05:31:47.783Z,1.18
2023-01-22T05:34:37.747Z,1.22
2023-01-22T05:37:07.830Z,1.26
2023-01-22T05:39:38.325Z,1.18
2023-01-22T05:42:16.040Z,1.30
2023-01-22T05:44:48.127Z,1.22
2023-01-22T05:47:18.447Z,1.19
2023-01-22T05:49:48.089Z,1.02
2023-01-22T05:52:18.716Z,1.19
2023-01-22T05:54:48.379Z,1.27
2023-01-22T05:57:20.643Z,1.22
2023-01-22T05:59:51.540Z,1.22
2023-01-22T06:02:21.369Z,1.20
2023-01-22T06:04:53.096Z,1.23
2023-01-22T06:07:27.634Z,1.11
2023-01-22T06:09:57.307Z,1.15
2023-01-22T06:12:29.524Z,1.30
2023-01-22T06:14:59.185Z,1.27
2023-01-22T06:17:28.852Z,0.93
2023-01-22T06:20:02.687Z,1.46
2023-01-22T06:22:32.945Z,1.39
2023-01-22T06:25:04.754Z,1.40
2023-01-22T06:27:55.170Z,1.17
2023-01-22T06:30:25.675Z,1.31
2023-01-22T06:32:57.563Z,1.41
2023-01-22T06:35:27.349Z,1.32
2023-01-22T06:37:56.980Z,1.20
2023-01-22T06:40:27.478Z,1.31
2023-01-22T06:42:59.848Z,1.37
2023-01-22T06:45:29.507Z,1.34
2023-01-22T06:48:03.161Z,1.42
2023-01-22T06:50:32.848Z,1.36
2023-01-22T06:53:03.442Z,1.13
2023-01-22T06:55:33.282Z,1.26
2023-01-22T06:58:05.637Z,1.39
2023-01-22T07:00:35.276Z,1.36
2023-01-22T07:03:08.578Z,1.38
2023-01-22T07:05:38.277Z,1.41
2023-01-22T07:08:08.344Z,1.41
2023-01-22T07:10:38.064Z,1.36
2023-01-22T07:13:11.450Z,1.45
2023-01-22T07:15:41.088Z,1.39
2023-01-22T07:18:14.491Z,1.42
2023-01-22T07:20:44.370Z,1.54
2023-01-22T07:23:14.105Z,1.47
2023-01-22T07:25:44.793Z,1.52
2023-01-22T07:28:18.139Z,1.50
2023-01-22T07:30:48.778Z,1.49
2023-01-22T07:33:18.707Z,1.53
2023-01-22T07:35:56.503Z,1.31
2023-01-22T07:38:26.614Z,1.48
2023-01-22T07:40:56.356Z,1.58
2023-01-22T07:43:28.691Z,1.19
2023-01-22T07:45:59.171Z,1.54
2023-01-22T07:48:28.933Z,1.49
2023-01-22T07:51:02.176Z,1.40
2023-01-22T07:53:31.975Z,1.54
2023-01-22T07:56:03.441Z,1.51
2023-01-22T07:58:35.678Z,1.49
2023-01-22T08:01:08.107Z,1.45
2023-01-22T08:03:37.970Z,1.60
2023-01-22T08:06:11.276Z,1.56
2023-01-22T08:08:42.697Z,1.51
2023-01-22T08:11:12.676Z,1.59
2023-01-22T08:13:44.981Z,1.68
2023-01-22T08:16:14.645Z,1.56
2023-01-22T08:18:44.312Z,1.72
2023-01-22T08:21:14.161Z,1.73
2023-01-22T08:23:48.200Z,1.76
2023-01-22T08:26:18.727Z,1.63
2023-01-22T08:28:50.929Z,1.68
2023-01-22T08:31:27.891Z,1.52
2023-01-22T08:33:58.224Z,1.64
2023-01-22T08:36:27.989Z,1.74
2023-01-22T08:38:58.201Z,1.69
2023-01-22T08:41:28.029Z,1.86
2023-01-22T08:44:00.209Z,1.88
2023-01-22T08:46:29.862Z,1.77
2023-01-22T08:48:59.502Z,1.76
2023-01-22T08:51:29.147Z,1.45
2023-01-22T08:53:58.773Z,1.68
2023-01-22T08:56:28.422Z,1.72
2023-01-22T08:59:06.450Z,1.81
2023-01-22T09:01:36.832Z,1.90
2023-01-22T09:04:08.501Z,1.97
2023-01-22T09:06:38.964Z,1.95
2023-01-22T09:09:09.268Z,1.61
2023-01-22T09:11:39.835Z,1.81
2023-01-22T09:14:12.228Z,2.38
2023-01-22T09:16:42.524Z,2.12
2023-01-22T09:19:13.569Z,1.80
2023-01-22T09:21:43.167Z,1.85
2023-01-22T09:24:12.917Z,1.92
2023-01-22T09:26:42.622Z,1.93
2023-01-22T09:29:14.918Z,1.87
2023-01-22T09:31:44.579Z,2.03
2023-01-22T09:34:14.279Z,1.90
2023-01-22T09:36:44.173Z,1.31
2023-01-22T09:39:14.058Z,1.59
2023-01-22T09:41:47.977Z,1.49
2023-01-22T09:44:25.412Z,2.03
2023-01-22T09:47:00.097Z,1.72
2023-01-22T09:49:35.106Z,1.47
2023-01-22T09:52:07.140Z,2.02
2023-01-22T09:54:36.984Z,2.02
2023-01-22T09:57:10.440Z,1.90
2023-01-22T09:59:49.769Z,1.90
2023-01-22T10:02:27.075Z,1.46
2023-01-22T10:05:01.869Z,1.42
2023-01-22T10:07:36.765Z,1.54
2023-01-22T10:10:21.401Z,1.54
2023-01-22T10:12:57.006Z,1.66
2023-01-22T10:15:30.357Z,1.62
2023-01-22T10:18:00.926Z,2.09
2023-01-22T10:20:31.032Z,1.72
2023-01-22T10:23:04.707Z,2.08
2023-01-22T10:25:34.393Z,2.19
2023-01-22T10:28:04.308Z,2.12
2023-01-22T10:30:36.837Z,2.31
2023-01-22T10:33:09.077Z,2.34
2023-01-22T10:35:45.788Z,2.33
2023-01-22T10:38:25.168Z,2.43
2023-01-22T10:41:00.753Z,2.19
2023-01-22T10:43:36.384Z,2.30
2023-01-22T10:46:18.834Z,2.22
2023-01-22T10:48:48.685Z,2.46
2023-01-22T10:51:22.553Z,2.48
2023-01-22T10:53:55.984Z,2.43
2023-01-22T10:56:31.974Z,2.47
2023-01-22T10:59:05.026Z,2.40
2023-01-22T11:01:39.988Z,2.63
2023-01-22T11:04:16.744Z,2.60
2023-01-22T11:06:50.220Z,2.58
2023-01-22T11:09:23.730Z,2.50
2023-01-22T11:12:01.591Z,2.46
2023-01-22T11:14:35.599Z,2.49
2023-01-22T11:17:16.712Z,2.52
2023-01-22T11:19:52.285Z,2.57
2023-01-22T11:22:30.316Z,2.39
2023-01-22T11:25:00.001Z,2.56
2023-01-22T11:27:47.584Z,2.11
2023-01-22T11:30:52.488Z,2.71
2023-01-22T11:33:37.931Z,2.65
2023-01-22T11:36:13.538Z,2.68
2023-01-22T11:38:51.404Z,2.81
2023-01-22T11:41:44.499Z,2.86
2023-01-22T11:44:50.404Z,2.93
2023-01-22T11:47:38.725Z,3.03
2023-01-22T11:50:24.797Z,3.05
2023-01-22T11:53:04.855Z,3.11
2023-01-22T11:55:57.281Z,3.19
2023-01-22T11:58:38.657Z,3.18
2023-01-22T12:01:20.632Z,3.20
2023-01-22T12:04:09.084Z,3.25
2023-01-22T12:07:04.775Z,3.33
2023-01-22T12:09:42.638Z,3.34
2023-01-22T12:12:29.801Z,3.45
2023-01-22T12:15:20.616Z,3.24
2023-01-22T12:18:03.061Z,3.08
2023-01-22T12:20:45.422Z,3.34
2023-01-22T12:23:24.028Z,3.26
2023-01-22T12:26:00.210Z,3.14
2023-01-22T12:28:35.057Z,3.22
2023-01-22T12:31:12.964Z,3.23
2023-01-22T12:33:44.651Z,3.27
2023-01-22T12:36:19.021Z,3.27
2023-01-22T12:38:57.379Z,3.25
2023-01-22T12:41:55.130Z,2.98
2023-01-22T12:44:40.971Z,3.33
2023-01-22T12:47:19.317Z,3.25
2023-01-22T12:49:50.451Z,3.28
2023-01-22T12:52:37.980Z,3.20
2023-01-22T12:55:31.811Z,2.96
2023-01-22T12:58:02.796Z,3.23
2023-01-22T13:00:39.401Z,3.16
2023-01-22T13:03:32.340Z,3.10
2023-01-22T13:06:06.828Z,3.28
2023-01-22T13:08:43.904Z,3.30
2023-01-22T13:11:29.551Z,3.20
2023-01-22T13:14:15.148Z,3.22
2023-01-22T13:16:57.161Z,3.16
2023-01-22T13:19:30.419Z,3.15
2023-01-22T13:22:03.016Z,3.10
2023-01-22T13:24:33.788Z,3.23
2023-01-22T13:27:08.871Z,3.30
2023-01-22T13:29:42.631Z,3.24
2023-01-22T13:32:20.890Z,3.15
2023-01-22T13:34:51.582Z,3.14
2023-01-22T13:37:30.528Z,3.26
2023-01-22T13:40:01.310Z,3.30
2023-01-22T13:42:37.316Z,3.00
2023-01-22T13:45:09.922Z,3.27
2023-01-22T13:47:40.647Z,2.88
2023-01-22T13:50:22.753Z,3.32
2023-01-22T13:52:53.530Z,3.22
2023-01-22T13:55:27.123Z,3.16
2023-01-22T13:58:01.699Z,3.13
2023-01-22T14:00:36.917Z,3.05
2023-01-22T14:03:23.498Z,3.00
2023-01-22T14:05:53.395Z,3.03
2023-01-22T14:08:23.048Z,3.17
2023-01-22T14:10:59.890Z,3.18
2023-01-22T14:13:42.866Z,2.91
2023-01-22T14:16:13.405Z,3.17
2023-01-22T14:18:45.252Z,3.04
2023-01-22T14:21:16.662Z,3.08
2023-01-22T14:23:46.606Z,2.99
2023-01-22T14:26:16.559Z,3.09
2023-01-22T14:28:49.083Z,3.00
2023-01-22T14:31:19.027Z,3.08
2023-01-22T14:33:48.660Z,3.00
2023-01-22T14:36:20.317Z,3.09
2023-01-22T14:38:51.503Z,3.00
2023-01-22T14:41:21.416Z,3.12
2023-01-22T14:43:53.916Z,3.21
2023-01-22T14:46:23.546Z,3.32
2023-01-22T14:48:53.458Z,3.23
2023-01-22T14:51:23.531Z,3.26
2023-01-22T14:53:53.236Z,3.40
2023-01-22T14:56:23.123Z,3.37
2023-01-22T14:58:55.341Z,3.11
2023-01-22T15:01:25.909Z,3.35
2023-01-22T15:03:55.546Z,3.22
2023-01-22T15:06:27.049Z,3.21
2023-01-22T15:08:56.686Z,3.28
2023-01-22T15:11:26.654Z,3.17
2023-01-22T15:13:58.930Z,3.35
2023-01-22T15:16:28.903Z,3.22
2023-01-22T15:18:58.822Z,3.09
2023-01-22T15:21:28.767Z,3.17
2023-01-22T15:23:59.172Z,3.09
2023-01-22T15:26:31.977Z,3.07
2023-01-22T15:29:05.308Z,3.08
2023-01-22T15:31:35.439Z,2.94
2023-01-22T15:34:05.517Z,2.96
2023-01-22T15:36:39.474Z,2.94
2023-01-22T15:39:10.007Z,3.01
2023-01-22T15:41:40.285Z,2.72
2023-01-22T15:44:15.219Z,2.95
2023-01-22T15:46:46.402Z,2.98
2023-01-22T15:49:18.160Z,2.82
2023-01-22T15:51:48.064Z,2.93
2023-01-22T15:54:19.410Z,2.95
2023-01-22T15:56:49.435Z,2.87
2023-01-22T15:59:22.170Z,2.93
2023-01-22T16:01:52.484Z,2.90
2023-01-22T16:04:22.263Z,2.84
2023-01-22T16:06:52.249Z,2.93
2023-01-22T16:09:21.886Z,2.86
2023-01-22T16:11:52.571Z,3.02
2023-01-22T16:14:25.085Z,3.00
2023-01-22T16:16:54.758Z,3.03
2023-01-22T16:19:24.462Z,3.22
2023-01-22T16:21:56.079Z,2.99
2023-01-22T16:24:25.748Z,3.02
2023-01-22T16:26:55.706Z,3.23
2023-01-22T16:29:28.383Z,3.32
2023-01-22T16:31:58.342Z,3.29
2023-01-22T16:34:27.984Z,3.26
2023-01-22T16:36:59.508Z,3.42
2023-01-22T16:39:29.447Z,3.49
2023-01-22T16:41:59.115Z,3.54
2023-01-22T16:44:33.608Z,3.49
2023-01-22T16:47:03.785Z,3.45
2023-01-22T16:49:35.051Z,3.44
2023-01-22T16:52:21.515Z,3.56
2023-01-22T16:54:51.894Z,3.70
2023-01-22T16:57:22.035Z,3.77
2023-01-22T16:59:54.286Z,3.66
2023-01-22T17:02:24.020Z,3.84
2023-01-22T17:04:55.104Z,3.79
2023-01-22T17:07:33.657Z,3.79
2023-01-22T17:10:04.389Z,3.75
2023-01-22T17:12:34.453Z,3.92
2023-01-22T17:15:07.884Z,3.97
2023-01-22T17:17:37.870Z,3.88
2023-01-22T17:20:10.606Z,3.99
2023-01-22T17:22:42.996Z,3.92
2023-01-22T17:25:12.951Z,3.92
2023-01-22T17:27:42.649Z,3.91
2023-01-22T17:30:16.948Z,3.81
2023-01-22T17:32:47.822Z,3.76
2023-01-22T17:35:18.993Z,3.50
2023-01-22T17:37:48.869Z,3.80
2023-01-22T17:40:18.870Z,3.71
2023-01-22T17:42:48.837Z,3.70
2023-01-22T17:45:21.403Z,3.66
2023-01-22T17:47:51.504Z,3.70
2023-01-22T17:50:21.364Z,3.81
2023-01-22T17:52:51.078Z,3.82
2023-01-22T17:55:22.019Z,3.81
2023-01-22T17:57:51.744Z,3.69
2023-01-22T18:00:25.607Z,3.73
2023-01-22T18:02:55.553Z,3.74
2023-01-22T18:05:26.683Z,3.60
2023-01-22T18:07:56.298Z,3.57
2023-01-22T18:10:26.679Z,3.74
2023-01-22T18:12:56.341Z,3.47
2023-01-22T18:15:28.543Z,3.77
2023-01-22T18:17:58.511Z,3.52
2023-01-22T18:20:28.378Z,3.71
2023-01-22T18:22:58.264Z,3.61
2023-01-22T18:25:28.184Z,3.71
2023-01-22T18:27:58.100Z,3.74
2023-01-22T18:30:30.385Z,3.84
2023-01-22T18:33:00.299Z,3.73
2023-01-22T18:35:29.958Z,3.57
2023-01-22T18:38:00.171Z,3.71
2023-01-22T18:40:31.894Z,3.88
2023-01-22T18:43:01.893Z,3.74
2023-01-22T18:45:37.073Z,3.64
2023-01-22T18:48:07.876Z,3.73
2023-01-22T18:50:37.812Z,3.76
2023-01-22T18:53:07.597Z,3.78
2023-01-22T18:55:38.549Z,3.80
2023-01-22T18:58:17.301Z,3.81
2023-01-22T19:00:49.975Z,3.75
2023-01-22T19:03:19.918Z,3.83
2023-01-22T19:05:50.073Z,3.81
2023-01-22T19:08:20.643Z,3.91
2023-01-22T19:10:50.588Z,3.81
2023-01-22T19:13:20.968Z,3.72
2023-01-22T19:15:53.238Z,3.80
2023-01-22T19:18:23.227Z,3.95
2023-01-22T19:20:53.138Z,3.84
2023-01-22T19:23:23.096Z,3.94
2023-01-22T19:25:57.015Z,3.68
2023-01-22T19:28:27.062Z,3.85
2023-01-22T19:30:59.410Z,3.86
2023-01-22T19:33:29.142Z,3.87
2023-01-22T19:35:59.203Z,3.93
2023-01-22T19:38:29.129Z,3.80
2023-01-22T19:40:59.062Z,3.86
2023-01-22T19:43:29.212Z,3.99
2023-01-22T19:46:05.031Z,3.92
2023-01-22T19:48:34.862Z,3.89
2023-01-22T19:51:07.575Z,3.89
2023-01-22T19:53:37.697Z,3.93
2023-01-22T19:56:16.789Z,3.98
2023-01-22T19:58:47.946Z,3.83
2023-01-22T20:01:21.014Z,3.50
2023-01-22T20:03:50.927Z,3.84
2023-01-22T20:06:20.938Z,3.83
2023-01-22T20:08:50.835Z,3.95
2023-01-22T20:11:21.320Z,3.89
2023-01-22T20:13:51.456Z,3.98
2023-01-22T20:16:25.883Z,3.99
2023-01-22T20:18:56.961Z,3.96
2023-01-22T20:21:28.637Z,4.07
2023-01-22T20:23:58.503Z,4.11
2023-01-22T20:26:28.169Z,4.00
2023-01-22T20:28:58.452Z,4.09
2023-01-22T20:31:31.111Z,4.04
2023-01-22T20:34:02.547Z,3.99
2023-01-22T20:36:32.696Z,3.86
2023-01-22T20:39:02.685Z,4.01
2023-01-22T20:41:34.429Z,4.07
2023-01-22T20:44:04.805Z,4.02
2023-01-22T20:46:41.194Z,4.11
2023-01-22T20:49:11.345Z,4.07
2023-01-22T20:51:42.305Z,4.03
2023-01-22T20:54:12.228Z,4.08
2023-01-22T20:56:42.492Z,4.10
2023-01-22T20:59:15.412Z,4.12
2023-01-22T21:01:48.043Z,4.05
2023-01-22T21:04:19.210Z,4.19
2023-01-22T21:06:50.163Z,4.01
2023-01-22T21:09:20.251Z,4.23
2023-01-22T21:11:50.253Z,4.16
2023-01-22T21:14:20.954Z,4.18
2023-01-22T21:16:53.529Z,4.17
2023-01-22T21:19:26.114Z,4.31
2023-01-22T21:21:57.362Z,4.30
2023-01-22T21:24:27.330Z,4.30
2023-01-22T21:26:57.024Z,4.12
2023-01-22T21:29:26.803Z,4.19
2023-01-22T21:31:59.431Z,4.32
2023-01-22T21:34:30.153Z,4.22
2023-01-22T21:37:01.135Z,4.21
2023-01-22T21:39:32.469Z,3.91
2023-01-22T21:42:14.443Z,4.10
2023-01-22T21:44:56.828Z,4.01
2023-01-22T21:47:29.365Z,3.99
2023-01-22T21:49:59.112Z,3.97
2023-01-22T21:52:28.966Z,3.66
2023-01-22T21:54:59.214Z,3.77
2023-01-22T21:57:29.444Z,3.78
2023-01-22T21:59:59.165Z,3.74
2023-01-22T22:02:31.625Z,3.71
2023-01-22T22:05:01.668Z,3.88
2023-01-22T22:07:31.336Z,3.85
2023-01-22T22:10:01.026Z,3.85
2023-01-22T22:12:31.399Z,3.85
2023-01-22T22:15:01.065Z,3.87
2023-01-22T22:17:33.313Z,3.87
2023-01-22T22:20:03.073Z,3.91
2023-01-22T22:22:33.723Z,3.85
2023-01-22T22:25:03.394Z,3.86
2023-01-22T22:27:33.115Z,3.76
2023-01-22T22:30:02.790Z,3.66
2023-01-22T22:32:35.055Z,3.95
2023-01-22T22:35:04.751Z,3.82
2023-01-22T22:37:34.415Z,3.83
2023-01-22T22:40:04.876Z,3.91
2023-01-22T22:42:34.531Z,3.96
2023-01-22T22:45:04.332Z,4.09
2023-01-22T22:47:38.102Z,4.06
2023-01-22T22:50:10.485Z,4.10
2023-01-22T22:52:40.706Z,4.12
2023-01-22T22:55:11.325Z,4.19
2023-01-22T22:57:41.045Z,4.24
2023-01-22T23:00:14.563Z,4.04
2023-01-22T23:02:46.880Z,4.29
2023-01-22T23:05:16.724Z,4.20
2023-01-22T23:07:46.459Z,4.33
2023-01-22T23:10:28.914Z,4.41
2023-01-22T23:13:03.425Z,4.46
2023-01-22T23:15:33.706Z,4.40
2023-01-22T23:18:06.142Z,4.46
2023-01-22T23:20:37.360Z,4.44
2023-01-22T23:23:07.044Z,4.26
2023-01-22T23:25:36.790Z,4.35
2023-01-22T23:28:06.898Z,4.34
2023-01-22T23:30:37.559Z,4.41
2023-01-22T23:33:09.919Z,4.31
2023-01-22T23:35:39.575Z,4.37
2023-01-22T23:38:09.298Z,4.39
2023-01-22T23:40:39.071Z,4.34
2023-01-22T23:43:08.772Z,4.33
2023-01-22T23:45:41.383Z,4.39
2023-01-22T23:48:13.837Z,4.34
2023-01-22T23:50:46.243Z,4.45
2023-01-22T23:53:15.943Z,4.40
2023-01-22T23:55:46.212Z,4.29
2023-01-22T23:58:15.899Z,4.29
